sensor_id;sensor_type;location;lat;lon;timestamp;temperature;humidity
78490;DHT22;67776;52.012;4.736;2023-07-13T00:00:43;18.34;79.71
78490;DHT22;67776;52.012;4.736;2023-07-13T00:03:09;18.25;79.85
78490;DHT22;67776;52.012;4.736;2023-07-13T00:05:34;18.14;80.07
78490;DHT22;67776;52.012;4.736;2023-07-13T00:08:00;18.14;80.13
78490;DHT22;67776;52.012;4.736;2023-07-13T00:10:25;18.10;80.69
78490;DHT22;67776;52.012;4.736;2023-07-13T00:12:51;18.06;80.79
78490;DHT22;67776;52.012;4.736;2023-07-13T00:15:23;18.00;80.74
78490;DHT22;67776;52.012;4.736;2023-07-13T00:17:51;17.96;80.70
78490;DHT22;67776;52.012;4.736;2023-07-13T00:20:17;17.93;80.91
78490;DHT22;67776;52.012;4.736;2023-07-13T00:22:42;17.90;81.14
78490;DHT22;67776;52.012;4.736;2023-07-13T00:25:10;17.94;81.08
78490;DHT22;67776;52.012;4.736;2023-07-13T00:27:36;17.93;81.15
78490;DHT22;67776;52.012;4.736;2023-07-13T00:30:02;17.94;81.21
78490;DHT22;67776;52.012;4.736;2023-07-13T00:32:27;17.89;81.44
78490;DHT22;67776;52.012;4.736;2023-07-13T00:34:54;17.98;81.31
78490;DHT22;67776;52.012;4.736;2023-07-13T00:37:19;17.96;81.17
78490;DHT22;67776;52.012;4.736;2023-07-13T00:39:45;18.00;80.72
78490;DHT22;67776;52.012;4.736;2023-07-13T00:42:10;18.04;80.40
78490;DHT22;67776;52.012;4.736;2023-07-13T00:44:36;18.07;79.95
78490;DHT22;67776;52.012;4.736;2023-07-13T00:47:02;18.07;79.47
78490;DHT22;67776;52.012;4.736;2023-07-13T00:49:29;18.07;79.66
78490;DHT22;67776;52.012;4.736;2023-07-13T00:51:58;17.97;79.68
78490;DHT22;67776;52.012;4.736;2023-07-13T00:54:29;18.03;79.75
78490;DHT22;67776;52.012;4.736;2023-07-13T00:56:59;17.97;79.91
78490;DHT22;67776;52.012;4.736;2023-07-13T00:59:26;17.98;79.73
78490;DHT22;67776;52.012;4.736;2023-07-13T01:01:51;17.96;79.66
78490;DHT22;67776;52.012;4.736;2023-07-13T01:04:17;17.91;80.03
78490;DHT22;67776;52.012;4.736;2023-07-13T01:06:43;17.83;80.33
78490;DHT22;67776;52.012;4.736;2023-07-13T01:09:10;17.87;79.74
78490;DHT22;67776;52.012;4.736;2023-07-13T01:11:36;17.91;79.96
78490;DHT22;67776;52.012;4.736;2023-07-13T01:14:02;17.65;81.52
78490;DHT22;67776;52.012;4.736;2023-07-13T01:16:33;17.59;82.15
78490;DHT22;67776;52.012;4.736;2023-07-13T01:18:59;17.59;81.94
78490;DHT22;67776;52.012;4.736;2023-07-13T01:21:27;17.59;82.30
78490;DHT22;67776;52.012;4.736;2023-07-13T01:23:53;17.43;83.01
78490;DHT22;67776;52.012;4.736;2023-07-13T01:26:18;17.36;83.66
78490;DHT22;67776;52.012;4.736;2023-07-13T01:28:44;17.45;83.73
78490;DHT22;67776;52.012;4.736;2023-07-13T01:31:10;17.30;84.48
78490;DHT22;67776;52.012;4.736;2023-07-13T01:33:40;17.11;85.27
78490;DHT22;67776;52.012;4.736;2023-07-13T01:36:06;17.15;85.41
78490;DHT22;67776;52.012;4.736;2023-07-13T01:38:32;17.18;85.50
78490;DHT22;67776;52.012;4.736;2023-07-13T01:40:58;17.04;85.84
78490;DHT22;67776;52.012;4.736;2023-07-13T01:43:24;17.02;85.52
78490;DHT22;67776;52.012;4.736;2023-07-13T01:45:49;16.70;86.35
78490;DHT22;67776;52.012;4.736;2023-07-13T01:48:15;16.70;85.91
78490;DHT22;67776;52.012;4.736;2023-07-13T01:50:40;16.81;85.66
78490;DHT22;67776;52.012;4.736;2023-07-13T01:53:06;16.73;85.98
78490;DHT22;67776;52.012;4.736;2023-07-13T01:55:31;16.77;85.97
78490;DHT22;67776;52.012;4.736;2023-07-13T01:57:57;16.73;86.08
78490;DHT22;67776;52.012;4.736;2023-07-13T02:00:23;16.81;85.52
78490;DHT22;67776;52.012;4.736;2023-07-13T02:02:50;16.79;85.96
78490;DHT22;67776;52.012;4.736;2023-07-13T02:05:15;16.89;85.47
78490;DHT22;67776;52.012;4.736;2023-07-13T02:07:41;16.94;85.34
78490;DHT22;67776;52.012;4.736;2023-07-13T02:10:08;16.84;85.84
78490;DHT22;67776;52.012;4.736;2023-07-13T02:12:33;16.83;86.01
78490;DHT22;67776;52.012;4.736;2023-07-13T02:14:59;16.87;85.85
78490;DHT22;67776;52.012;4.736;2023-07-13T02:17:26;16.89;85.82
78490;DHT22;67776;52.012;4.736;2023-07-13T02:19:52;16.87;85.81
78490;DHT22;67776;52.012;4.736;2023-07-13T02:22:17;16.70;86.61
78490;DHT22;67776;52.012;4.736;2023-07-13T02:24:46;16.75;86.41
78490;DHT22;67776;52.012;4.736;2023-07-13T02:27:11;16.62;86.86
78490;DHT22;67776;52.012;4.736;2023-07-13T02:29:37;16.65;86.79
78490;DHT22;67776;52.012;4.736;2023-07-13T02:32:02;16.51;87.41
78490;DHT22;67776;52.012;4.736;2023-07-13T02:34:28;16.49;87.32
78490;DHT22;67776;52.012;4.736;2023-07-13T02:36:53;16.35;87.40
78490;DHT22;67776;52.012;4.736;2023-07-13T02:39:19;16.49;86.58
78490;DHT22;67776;52.012;4.736;2023-07-13T02:41:44;16.45;86.80
78490;DHT22;67776;52.012;4.736;2023-07-13T02:44:12;16.42;86.55
78490;DHT22;67776;52.012;4.736;2023-07-13T02:46:39;16.25;86.43
78490;DHT22;67776;52.012;4.736;2023-07-13T02:49:04;16.20;86.11
78490;DHT22;67776;52.012;4.736;2023-07-13T02:51:30;16.25;85.66
78490;DHT22;67776;52.012;4.736;2023-07-13T02:53:56;16.32;84.89
78490;DHT22;67776;52.012;4.736;2023-07-13T02:56:26;16.25;85.06
78490;DHT22;67776;52.012;4.736;2023-07-13T02:58:52;16.21;85.34
78490;DHT22;67776;52.012;4.736;2023-07-13T03:01:19;16.18;85.85
78490;DHT22;67776;52.012;4.736;2023-07-13T03:03:48;16.25;85.45
78490;DHT22;67776;52.012;4.736;2023-07-13T03:06:14;16.14;86.31
78490;DHT22;67776;52.012;4.736;2023-07-13T03:08:41;16.08;86.37
78490;DHT22;67776;52.012;4.736;2023-07-13T03:11:09;16.07;86.75
78490;DHT22;67776;52.012;4.736;2023-07-13T03:13:36;15.93;87.28
78490;DHT22;67776;52.012;4.736;2023-07-13T03:16:02;16.11;86.63
78490;DHT22;67776;52.012;4.736;2023-07-13T03:18:28;16.04;87.37
78490;DHT22;67776;52.012;4.736;2023-07-13T03:20:54;16.07;87.13
78490;DHT22;67776;52.012;4.736;2023-07-13T03:23:21;16.01;87.56
78490;DHT22;67776;52.012;4.736;2023-07-13T03:25:47;16.01;87.21
78490;DHT22;67776;52.012;4.736;2023-07-13T03:28:13;16.07;87.31
78490;DHT22;67776;52.012;4.736;2023-07-13T03:30:39;15.96;87.77
78490;DHT22;67776;52.012;4.736;2023-07-13T03:33:04;15.96;87.93
78490;DHT22;67776;52.012;4.736;2023-07-13T03:35:30;15.96;88.12
78490;DHT22;67776;52.012;4.736;2023-07-13T03:37:59;15.90;88.53
78490;DHT22;67776;52.012;4.736;2023-07-13T03:40:25;15.85;88.85
78490;DHT22;67776;52.012;4.736;2023-07-13T03:42:52;15.91;88.77
78490;DHT22;67776;52.012;4.736;2023-07-13T03:45:17;15.97;88.49
78490;DHT22;67776;52.012;4.736;2023-07-13T03:47:43;15.87;89.02
78490;DHT22;67776;52.012;4.736;2023-07-13T03:50:09;15.91;89.03
78490;DHT22;67776;52.012;4.736;2023-07-13T03:52:34;15.87;89.22
78490;DHT22;67776;52.012;4.736;2023-07-13T03:55:00;15.86;89.62
78490;DHT22;67776;52.012;4.736;2023-07-13T03:57:25;15.85;89.68
78490;DHT22;67776;52.012;4.736;2023-07-13T03:59:51;15.93;89.63
78490;DHT22;67776;52.012;4.736;2023-07-13T04:02:16;15.98;89.48
78490;DHT22;67776;52.012;4.736;2023-07-13T04:04:42;15.97;89.77
78490;DHT22;67776;52.012;4.736;2023-07-13T04:07:08;15.98;89.73
78490;DHT22;67776;52.012;4.736;2023-07-13T04:09:34;16.00;90.04
78490;DHT22;67776;52.012;4.736;2023-07-13T04:12:00;15.89;90.54
78490;DHT22;67776;52.012;4.736;2023-07-13T04:14:25;15.98;90.47
78490;DHT22;67776;52.012;4.736;2023-07-13T04:16:50;15.82;91.05
78490;DHT22;67776;52.012;4.736;2023-07-13T04:19:16;15.96;90.61
78490;DHT22;67776;52.012;4.736;2023-07-13T04:21:41;16.04;90.58
78490;DHT22;67776;52.012;4.736;2023-07-13T04:24:07;16.11;90.03
78490;DHT22;67776;52.012;4.736;2023-07-13T04:26:33;16.11;90.35
78490;DHT22;67776;52.012;4.736;2023-07-13T04:29:01;16.25;89.98
78490;DHT22;67776;52.012;4.736;2023-07-13T04:31:29;16.26;90.49
78490;DHT22;67776;52.012;4.736;2023-07-13T04:33:54;16.38;90.20
78490;DHT22;67776;52.012;4.736;2023-07-13T04:36:20;16.38;90.42
78490;DHT22;67776;52.012;4.736;2023-07-13T04:38:45;16.34;90.49
78490;DHT22;67776;52.012;4.736;2023-07-13T04:41:11;16.28;90.94
78490;DHT22;67776;52.012;4.736;2023-07-13T04:43:37;16.29;90.36
78490;DHT22;67776;52.012;4.736;2023-07-13T04:46:05;16.32;90.51
78490;DHT22;67776;52.012;4.736;2023-07-13T04:48:31;16.40;90.26
78490;DHT22;67776;52.012;4.736;2023-07-13T04:50:57;16.51;89.99
78490;DHT22;67776;52.012;4.736;2023-07-13T04:53:23;16.38;90.61
78490;DHT22;67776;52.012;4.736;2023-07-13T04:55:49;16.49;90.25
78490;DHT22;67776;52.012;4.736;2023-07-13T04:58:14;16.56;90.06
78490;DHT22;67776;52.012;4.736;2023-07-13T05:00:40;16.60;89.61
78490;DHT22;67776;52.012;4.736;2023-07-13T05:03:05;16.60;89.90
78490;DHT22;67776;52.012;4.736;2023-07-13T05:05:31;16.68;89.82
78490;DHT22;67776;52.012;4.736;2023-07-13T05:07:56;16.81;89.40
78490;DHT22;67776;52.012;4.736;2023-07-13T05:10:22;16.80;89.25
78490;DHT22;67776;52.012;4.736;2023-07-13T05:12:48;16.70;89.79
78490;DHT22;67776;52.012;4.736;2023-07-13T05:15:14;16.83;89.63
78490;DHT22;67776;52.012;4.736;2023-07-13T05:17:39;16.83;89.50
78490;DHT22;67776;52.012;4.736;2023-07-13T05:20:07;16.89;89.32
78490;DHT22;67776;52.012;4.736;2023-07-13T05:22:32;16.94;89.78
78490;DHT22;67776;52.012;4.736;2023-07-13T05:25:00;17.13;89.31
78490;DHT22;67776;52.012;4.736;2023-07-13T05:27:26;17.21;89.09
78490;DHT22;67776;52.012;4.736;2023-07-13T05:29:51;17.23;89.39
78490;DHT22;67776;52.012;4.736;2023-07-13T05:32:18;17.31;88.74
78490;DHT22;67776;52.012;4.736;2023-07-13T05:34:43;17.52;88.58
78490;DHT22;67776;52.012;4.736;2023-07-13T05:37:09;17.66;87.71
78490;DHT22;67776;52.012;4.736;2023-07-13T05:39:34;17.66;87.83
78490;DHT22;67776;52.012;4.736;2023-07-13T05:42:01;17.83;87.92
78490;DHT22;67776;52.012;4.736;2023-07-13T05:44:27;17.82;88.59
78490;DHT22;67776;52.012;4.736;2023-07-13T05:46:52;17.87;88.12
78490;DHT22;67776;52.012;4.736;2023-07-13T05:49:18;17.97;87.00
78490;DHT22;67776;52.012;4.736;2023-07-13T05:51:44;17.89;87.88
78490;DHT22;67776;52.012;4.736;2023-07-13T05:54:10;18.08;87.03
78490;DHT22;67776;52.012;4.736;2023-07-13T05:56:35;18.08;86.63
78490;DHT22;67776;52.012;4.736;2023-07-13T05:59:01;18.18;86.37
78490;DHT22;67776;52.012;4.736;2023-07-13T06:01:26;18.33;86.26
78490;DHT22;67776;52.012;4.736;2023-07-13T06:03:52;18.21;86.07
78490;DHT22;67776;52.012;4.736;2023-07-13T06:06:19;18.21;86.14
78490;DHT22;67776;52.012;4.736;2023-07-13T06:08:45;18.31;85.78
78490;DHT22;67776;52.012;4.736;2023-07-13T06:11:17;18.35;85.23
78490;DHT22;67776;52.012;4.736;2023-07-13T06:13:43;18.42;85.83
78490;DHT22;67776;52.012;4.736;2023-07-13T06:16:09;18.53;84.79
78490;DHT22;67776;52.012;4.736;2023-07-13T06:18:36;18.40;85.94
78490;DHT22;67776;52.012;4.736;2023-07-13T06:21:13;18.03;87.07
78490;DHT22;67776;52.012;4.736;2023-07-13T06:23:39;18.06;84.57
78490;DHT22;67776;52.012;4.736;2023-07-13T06:26:05;17.73;80.15
78490;DHT22;67776;52.012;4.736;2023-07-13T06:28:31;17.51;81.37
78490;DHT22;67776;52.012;4.736;2023-07-13T06:30:58;17.24;84.10
78490;DHT22;67776;52.012;4.736;2023-07-13T06:33:24;17.20;84.82
78490;DHT22;67776;52.012;4.736;2023-07-13T06:35:50;17.10;85.23
78490;DHT22;67776;52.012;4.736;2023-07-13T06:38:15;17.11;87.30
78490;DHT22;67776;52.012;4.736;2023-07-13T06:40:40;17.18;88.04
78490;DHT22;67776;52.012;4.736;2023-07-13T06:43:06;17.20;87.67
78490;DHT22;67776;52.012;4.736;2023-07-13T06:45:36;17.34;88.26
78490;DHT22;67776;52.012;4.736;2023-07-13T06:48:05;17.41;87.76
78490;DHT22;67776;52.012;4.736;2023-07-13T06:50:31;17.35;85.39
78490;DHT22;67776;52.012;4.736;2023-07-13T06:52:56;17.42;84.11
78490;DHT22;67776;52.012;4.736;2023-07-13T06:55:22;17.52;84.47
78490;DHT22;67776;52.012;4.736;2023-07-13T06:57:47;17.51;83.53
78490;DHT22;67776;52.012;4.736;2023-07-13T07:00:13;17.42;84.87
78490;DHT22;67776;52.012;4.736;2023-07-13T07:02:38;17.20;87.27
78490;DHT22;67776;52.012;4.736;2023-07-13T07:05:04;16.96;88.45
78490;DHT22;67776;52.012;4.736;2023-07-13T07:07:29;16.91;88.89
78490;DHT22;67776;52.012;4.736;2023-07-13T07:09:55;16.83;88.22
78490;DHT22;67776;52.012;4.736;2023-07-13T07:12:20;16.84;89.86
78490;DHT22;67776;52.012;4.736;2023-07-13T07:14:46;16.89;90.80
78490;DHT22;67776;52.012;4.736;2023-07-13T07:17:12;17.00;90.35
78490;DHT22;67776;52.012;4.736;2023-07-13T07:19:38;17.18;90.40
78490;DHT22;67776;52.012;4.736;2023-07-13T07:22:03;17.42;90.76
78490;DHT22;67776;52.012;4.736;2023-07-13T07:24:29;17.52;88.80
78490;DHT22;67776;52.012;4.736;2023-07-13T07:26:54;17.73;88.38
78490;DHT22;67776;52.012;4.736;2023-07-13T07:29:20;17.80;87.07
78490;DHT22;67776;52.012;4.736;2023-07-13T07:31:45;17.83;87.84
78490;DHT22;67776;52.012;4.736;2023-07-13T07:34:11;18.08;88.06
78490;DHT22;67776;52.012;4.736;2023-07-13T07:36:36;18.56;88.39
78490;DHT22;67776;52.012;4.736;2023-07-13T07:39:02;18.66;86.09
78490;DHT22;67776;52.012;4.736;2023-07-13T07:41:27;18.77;84.03
78490;DHT22;67776;52.012;4.736;2023-07-13T07:43:53;18.92;83.91
78490;DHT22;67776;52.012;4.736;2023-07-13T07:46:18;18.76;84.88
78490;DHT22;67776;52.012;4.736;2023-07-13T07:48:44;18.58;83.90
78490;DHT22;67776;52.012;4.736;2023-07-13T07:51:09;18.40;85.43
78490;DHT22;67776;52.012;4.736;2023-07-13T07:53:34;18.06;83.92
78490;DHT22;67776;52.012;4.736;2023-07-13T07:56:00;17.78;81.91
78490;DHT22;67776;52.012;4.736;2023-07-13T07:58:25;17.65;84.10
78490;DHT22;67776;52.012;4.736;2023-07-13T08:00:50;17.48;84.45
78490;DHT22;67776;52.012;4.736;2023-07-13T08:03:16;17.58;84.11
78490;DHT22;67776;52.012;4.736;2023-07-13T08:05:41;17.96;83.58
78490;DHT22;67776;52.012;4.736;2023-07-13T08:08:07;18.33;84.39
78490;DHT22;67776;52.012;4.736;2023-07-13T08:10:35;18.35;83.05
78490;DHT22;67776;52.012;4.736;2023-07-13T08:13:01;17.89;84.90
78490;DHT22;67776;52.012;4.736;2023-07-13T08:15:27;17.63;87.50
78490;DHT22;67776;52.012;4.736;2023-07-13T08:17:53;17.46;86.61
78490;DHT22;67776;52.012;4.736;2023-07-13T08:20:18;17.42;87.51
78490;DHT22;67776;52.012;4.736;2023-07-13T08:22:44;17.65;86.27
78490;DHT22;67776;52.012;4.736;2023-07-13T08:25:09;18.18;86.28
78490;DHT22;67776;52.012;4.736;2023-07-13T08:27:35;18.66;85.97
78490;DHT22;67776;52.012;4.736;2023-07-13T08:30:00;18.93;84.00
78490;DHT22;67776;52.012;4.736;2023-07-13T08:32:28;18.80;83.85
78490;DHT22;67776;52.012;4.736;2023-07-13T08:34:54;18.89;82.70
78490;DHT22;67776;52.012;4.736;2023-07-13T08:37:19;19.11;83.78
78490;DHT22;67776;52.012;4.736;2023-07-13T08:39:45;19.42;79.99
78490;DHT22;67776;52.012;4.736;2023-07-13T08:42:56;19.80;78.77
78490;DHT22;67776;52.012;4.736;2023-07-13T08:45:17;19.99;75.98
78490;DHT22;67776;52.012;4.736;2023-07-13T08:47:52;19.42;77.74
78490;DHT22;67776;52.012;4.736;2023-07-13T08:50:22;19.20;79.71
78490;DHT22;67776;52.012;4.736;2023-07-13T08:52:49;18.99;79.79
78490;DHT22;67776;52.012;4.736;2023-07-13T08:55:20;18.63;78.36
78490;DHT22;67776;52.012;4.736;2023-07-13T08:57:52;18.44;79.29
78490;DHT22;67776;52.012;4.736;2023-07-13T09:00:19;18.27;79.93
78490;DHT22;67776;52.012;4.736;2023-07-13T09:02:57;18.21;79.43
78490;DHT22;67776;52.012;4.736;2023-07-13T09:05:48;18.08;81.88
78490;DHT22;67776;52.012;4.736;2023-07-13T09:08:38;17.96;83.70
78490;DHT22;67776;52.012;4.736;2023-07-13T09:16:25;17.63;88.42
78490;DHT22;67776;52.012;4.736;2023-07-13T09:18:54;17.89;88.66
78490;DHT22;67776;52.012;4.736;2023-07-13T09:21:31;18.07;87.44
78490;DHT22;67776;52.012;4.736;2023-07-13T09:24:01;19.21;88.22
78490;DHT22;67776;52.012;4.736;2023-07-13T09:26:29;19.68;83.35
78490;DHT22;67776;52.012;4.736;2023-07-13T09:29:06;19.30;82.91
78490;DHT22;67776;52.012;4.736;2023-07-13T09:31:43;19.24;81.88
78490;DHT22;67776;52.012;4.736;2023-07-13T09:34:11;19.41;74.87
78490;DHT22;67776;52.012;4.736;2023-07-13T09:36:37;18.66;78.17
78490;DHT22;67776;52.012;4.736;2023-07-13T09:39:09;18.33;78.47
78490;DHT22;67776;52.012;4.736;2023-07-13T09:41:57;18.10;81.61
78490;DHT22;67776;52.012;4.736;2023-07-13T09:44:31;18.17;81.80
78490;DHT22;67776;52.012;4.736;2023-07-13T09:46:58;18.56;82.03
78490;DHT22;67776;52.012;4.736;2023-07-13T09:49:35;19.00;78.65
78490;DHT22;67776;52.012;4.736;2023-07-13T09:52:06;19.10;79.50
78490;DHT22;67776;52.012;4.736;2023-07-13T09:54:36;18.52;78.21
78490;DHT22;67776;52.012;4.736;2023-07-13T09:57:03;18.58;77.97
78490;DHT22;67776;52.012;4.736;2023-07-13T09:59:33;18.47;76.90
78490;DHT22;67776;52.012;4.736;2023-07-13T10:01:59;19.00;76.65
78490;DHT22;67776;52.012;4.736;2023-07-13T10:04:32;19.57;76.77
78490;DHT22;67776;52.012;4.736;2023-07-13T10:07:06;19.68;75.05
78490;DHT22;67776;52.012;4.736;2023-07-13T10:09:32;20.76;76.48
78490;DHT22;67776;52.012;4.736;2023-07-13T10:11:57;21.27;74.97
78490;DHT22;67776;52.012;4.736;2023-07-13T10:14:23;21.22;71.33
78490;DHT22;67776;52.012;4.736;2023-07-13T10:16:57;21.62;70.83
78490;DHT22;67776;52.012;4.736;2023-07-13T10:19:29;22.09;70.40
78490;DHT22;67776;52.012;4.736;2023-07-13T10:22:26;21.79;72.85
78490;DHT22;67776;52.012;4.736;2023-07-13T10:24:53;21.06;72.01
78490;DHT22;67776;52.012;4.736;2023-07-13T10:27:29;20.78;73.11
78490;DHT22;67776;52.012;4.736;2023-07-13T10:30:06;21.27;72.11
78490;DHT22;67776;52.012;4.736;2023-07-13T10:32:34;21.45;73.02
78490;DHT22;67776;52.012;4.736;2023-07-13T10:35:01;22.36;69.79
78490;DHT22;67776;52.012;4.736;2023-07-13T10:37:36;22.47;68.35
78490;DHT22;67776;52.012;4.736;2023-07-13T10:40:05;22.78;66.08
78490;DHT22;67776;52.012;4.736;2023-07-13T10:42:36;22.79;65.92
78490;DHT22;67776;52.012;4.736;2023-07-13T10:45:15;23.12;66.29
78490;DHT22;67776;52.012;4.736;2023-07-13T10:47:43;23.86;66.35
78490;DHT22;67776;52.012;4.736;2023-07-13T10:50:23;22.60;65.71
78490;DHT22;67776;52.012;4.736;2023-07-13T10:52:54;21.14;69.38
78490;DHT22;67776;52.012;4.736;2023-07-13T10:58:00;20.31;74.01
78490;DHT22;67776;52.012;4.736;2023-07-13T11:00:25;20.35;76.16
78490;DHT22;67776;52.012;4.736;2023-07-13T11:03:01;20.05;70.49
78490;DHT22;67776;52.012;4.736;2023-07-13T11:05:33;21.22;69.23
78490;DHT22;67776;52.012;4.736;2023-07-13T11:10:56;22.99;59.62
78490;DHT22;67776;52.012;4.736;2023-07-13T11:21:31;23.03;60.29
78490;DHT22;67776;52.012;4.736;2023-07-13T11:24:04;22.89;62.54
78490;DHT22;67776;52.012;4.736;2023-07-13T11:31:43;23.65;57.64
78490;DHT22;67776;52.012;4.736;2023-07-13T11:34:19;24.32;55.86
78490;DHT22;67776;52.012;4.736;2023-07-13T11:36:47;24.43;56.79
78490;DHT22;67776;52.012;4.736;2023-07-13T11:39:32;25.14;54.15
78490;DHT22;67776;52.012;4.736;2023-07-13T11:42:05;24.63;56.17
78490;DHT22;67776;52.012;4.736;2023-07-13T11:44:33;24.68;52.65
78490;DHT22;67776;52.012;4.736;2023-07-13T11:47:00;24.54;52.06
78490;DHT22;67776;52.012;4.736;2023-07-13T11:49:42;24.65;52.66
78490;DHT22;67776;52.012;4.736;2023-07-13T11:52:14;24.49;52.52
78490;DHT22;67776;52.012;4.736;2023-07-13T11:54:49;24.51;53.62
78490;DHT22;67776;52.012;4.736;2023-07-13T11:57:33;24.53;54.47
78490;DHT22;67776;52.012;4.736;2023-07-13T12:00:04;25.01;51.42
78490;DHT22;67776;52.012;4.736;2023-07-13T12:02:36;24.81;52.76
78490;DHT22;67776;52.012;4.736;2023-07-13T12:05:03;25.27;51.19
78490;DHT22;67776;52.012;4.736;2023-07-13T12:07:32;26.11;52.21
78490;DHT22;67776;52.012;4.736;2023-07-13T12:10:02;25.09;50.62
78490;DHT22;67776;52.012;4.736;2023-07-13T12:12:29;25.54;50.45
78490;DHT22;67776;52.012;4.736;2023-07-13T12:14:55;25.60;49.43
78490;DHT22;67776;52.012;4.736;2023-07-13T12:17:25;25.11;51.99
78490;DHT22;67776;52.012;4.736;2023-07-13T12:19:52;26.11;49.60
78490;DHT22;67776;52.012;4.736;2023-07-13T12:22:19;25.16;50.75
78490;DHT22;67776;52.012;4.736;2023-07-13T12:24:46;25.39;50.24
78490;DHT22;67776;52.012;4.736;2023-07-13T12:27:20;25.29;52.87
78490;DHT22;67776;52.012;4.736;2023-07-13T12:29:56;25.29;50.26
78490;DHT22;67776;52.012;4.736;2023-07-13T12:32:24;26.16;48.59
78490;DHT22;67776;52.012;4.736;2023-07-13T12:34:56;25.44;52.57
78490;DHT22;67776;52.012;4.736;2023-07-13T12:37:23;25.60;49.98
78490;DHT22;67776;52.012;4.736;2023-07-13T12:39:49;26.01;47.49
78490;DHT22;67776;52.012;4.736;2023-07-13T12:42:24;26.32;48.14
78490;DHT22;67776;52.012;4.736;2023-07-13T12:44:56;26.02;47.65
78490;DHT22;67776;52.012;4.736;2023-07-13T12:47:22;26.77;47.89
78490;DHT22;67776;52.012;4.736;2023-07-13T12:49:58;26.73;48.01
78490;DHT22;67776;52.012;4.736;2023-07-13T12:52:32;27.41;46.93
78490;DHT22;67776;52.012;4.736;2023-07-13T12:55:12;27.18;47.72
78490;DHT22;67776;52.012;4.736;2023-07-13T12:57:44;27.52;43.49
78490;DHT22;67776;52.012;4.736;2023-07-13T13:00:27;26.52;46.86
78490;DHT22;67776;52.012;4.736;2023-07-13T13:02:55;26.86;45.32
78490;DHT22;67776;52.012;4.736;2023-07-13T13:05:21;26.77;45.55
78490;DHT22;67776;52.012;4.736;2023-07-13T13:07:49;27.11;44.95
78490;DHT22;67776;52.012;4.736;2023-07-13T13:10:14;26.64;48.21
78490;DHT22;67776;52.012;4.736;2023-07-13T13:12:41;25.97;49.07
78490;DHT22;67776;52.012;4.736;2023-07-13T13:15:10;25.89;48.94
78490;DHT22;67776;52.012;4.736;2023-07-13T13:17:37;26.11;49.23
78490;DHT22;67776;52.012;4.736;2023-07-13T13:20:16;26.31;49.02
78490;DHT22;67776;52.012;4.736;2023-07-13T13:22:42;25.54;50.41
78490;DHT22;67776;52.012;4.736;2023-07-13T13:25:12;26.36;46.01
78490;DHT22;67776;52.012;4.736;2023-07-13T13:27:39;26.91;45.51
78490;DHT22;67776;52.012;4.736;2023-07-13T13:30:16;27.43;46.06
78490;DHT22;67776;52.012;4.736;2023-07-13T13:32:46;28.04;46.15
78490;DHT22;67776;52.012;4.736;2023-07-13T13:35:21;27.56;46.93
78490;DHT22;67776;52.012;4.736;2023-07-13T13:37:47;25.71;47.00
78490;DHT22;67776;52.012;4.736;2023-07-13T13:40:21;25.11;49.88
78490;DHT22;67776;52.012;4.736;2023-07-13T13:42:48;25.92;47.74
78490;DHT22;67776;52.012;4.736;2023-07-13T13:45:14;26.98;46.53
78490;DHT22;67776;52.012;4.736;2023-07-13T13:47:44;26.81;45.68
78490;DHT22;67776;52.012;4.736;2023-07-13T13:50:16;26.74;43.39
78490;DHT22;67776;52.012;4.736;2023-07-13T13:52:42;25.91;49.79
78490;DHT22;67776;52.012;4.736;2023-07-13T13:55:21;27.24;44.07
78490;DHT22;67776;52.012;4.736;2023-07-13T13:57:48;26.54;46.16
78490;DHT22;67776;52.012;4.736;2023-07-13T14:00:16;27.29;43.37
78490;DHT22;67776;52.012;4.736;2023-07-13T14:02:45;27.12;43.63
78490;DHT22;67776;52.012;4.736;2023-07-13T14:05:22;26.63;44.30
78490;DHT22;67776;52.012;4.736;2023-07-13T14:07:47;26.78;44.19
78490;DHT22;67776;52.012;4.736;2023-07-13T14:10:14;26.69;44.75
78490;DHT22;67776;52.012;4.736;2023-07-13T14:12:44;27.02;43.30
78490;DHT22;67776;52.012;4.736;2023-07-13T14:15:28;26.14;44.40
78490;DHT22;67776;52.012;4.736;2023-07-13T14:17:56;26.92;43.78
78490;DHT22;67776;52.012;4.736;2023-07-13T14:20:24;25.87;45.50
78490;DHT22;67776;52.012;4.736;2023-07-13T14:22:51;26.26;44.99
78490;DHT22;67776;52.012;4.736;2023-07-13T14:25:18;26.69;45.39
78490;DHT22;67776;52.012;4.736;2023-07-13T14:27:44;26.43;45.01
78490;DHT22;67776;52.012;4.736;2023-07-13T14:30:18;26.99;45.58
78490;DHT22;67776;52.012;4.736;2023-07-13T14:32:44;25.95;45.98
78490;DHT22;67776;52.012;4.736;2023-07-13T14:35:14;27.19;44.74
78490;DHT22;67776;52.012;4.736;2023-07-13T14:37:41;27.88;43.98
78490;DHT22;67776;52.012;4.736;2023-07-13T14:40:28;26.71;46.51
78490;DHT22;67776;52.012;4.736;2023-07-13T14:42:54;26.36;45.23
78490;DHT22;67776;52.012;4.736;2023-07-13T14:45:20;25.91;47.75
78490;DHT22;67776;52.012;4.736;2023-07-13T14:47:46;25.91;47.28
78490;DHT22;67776;52.012;4.736;2023-07-13T14:50:30;26.32;47.17
78490;DHT22;67776;52.012;4.736;2023-07-13T14:52:57;26.67;46.07
78490;DHT22;67776;52.012;4.736;2023-07-13T14:55:22;25.97;48.34
78490;DHT22;67776;52.012;4.736;2023-07-13T14:57:51;25.66;46.75
78490;DHT22;67776;52.012;4.736;2023-07-13T15:00:20;26.33;43.70
78490;DHT22;67776;52.012;4.736;2023-07-13T15:02:53;26.43;45.49
78490;DHT22;67776;52.012;4.736;2023-07-13T15:05:23;26.06;45.69
78490;DHT22;67776;52.012;4.736;2023-07-13T15:07:50;26.31;46.25
78490;DHT22;67776;52.012;4.736;2023-07-13T15:12:44;26.11;45.77
78490;DHT22;67776;52.012;4.736;2023-07-13T15:15:09;25.04;47.71
78490;DHT22;67776;52.012;4.736;2023-07-13T15:17:38;25.36;47.81
78490;DHT22;67776;52.012;4.736;2023-07-13T15:20:21;25.75;49.79
78490;DHT22;67776;52.012;4.736;2023-07-13T15:22:50;25.87;49.93
78490;DHT22;67776;52.012;4.736;2023-07-13T15:25:22;26.01;47.65
78490;DHT22;67776;52.012;4.736;2023-07-13T15:27:49;25.43;48.98
78490;DHT22;67776;52.012;4.736;2023-07-13T15:30:15;25.43;50.74
78490;DHT22;67776;52.012;4.736;2023-07-13T15:32:42;24.88;51.13
78490;DHT22;67776;52.012;4.736;2023-07-13T15:35:34;24.53;50.71
78490;DHT22;67776;52.012;4.736;2023-07-13T15:37:59;24.41;50.67
78490;DHT22;67776;52.012;4.736;2023-07-13T15:40:25;24.39;51.86
78490;DHT22;67776;52.012;4.736;2023-07-13T15:42:50;24.16;51.38
78490;DHT22;67776;52.012;4.736;2023-07-13T15:45:21;23.22;53.89
78490;DHT22;67776;52.012;4.736;2023-07-13T15:47:49;23.17;54.88
78490;DHT22;67776;52.012;4.736;2023-07-13T15:50:16;23.42;54.15
78490;DHT22;67776;52.012;4.736;2023-07-13T15:52:43;23.67;54.25
78490;DHT22;67776;52.012;4.736;2023-07-13T15:55:11;23.68;55.79
78490;DHT22;67776;52.012;4.736;2023-07-13T15:57:37;23.36;53.89
78490;DHT22;67776;52.012;4.736;2023-07-13T16:00:03;23.43;55.59
78490;DHT22;67776;52.012;4.736;2023-07-13T16:02:31;23.28;55.44